Portada
METAR-TAF:

METAR-TAF

Aeroports :

Pskov, Rússia

latitud: 57-47-06N, longitud: 028-23-54E, altitud: 47 m

Observació

L'informe es va fer fa 48 minuts, a les 02:00 UTC
Vent 2 kt del Oest/Sud-Oest
Temperatura 7°C
Humitat 87%
Pressió 1021 hPa
Visibilitat 10 km o més

METAR: ULOO 280200Z AUTO 25001MPS 9999 // NCD 07/05 Q1021 RMK QFE762

Hora: 05:48 (02:48 UTC)

Pronòstic

L'informe es va fer fa 49 minuts, a les 01:59 UTC
Pronòstic vàlid del 28 a les 03 UTC al 28 a les 12 UTC
Vent 6 kt del Oest
Visibilitat 10 km o més
Núvols disperses a una alçada de 4000 ft
Evolucionant progressivament
l' 28 a les 04 UTC al 28 a les 06 UTC
Cel ennuvolat a una alçada de 2500 ft
Temporalment
l' 28 a les 07 UTC al 28 a les 12 UTC
Visibilitat: 5000 m
Cel ennuvolat a una alçada de 1500 ft
Cel ennuvolat a una alçada de 2000 ft, Cumulonimbus.
xàfecs de pluja

TAF: ULOO 280159Z 2803/2812 27003MPS 9999 SCT040 BECMG 2804/2806 BKN025 TEMPO 2807/2812 5000 -SHRA BKN015 BKN020CB

Observacions i pronòstics meteorològics de més de 4000 aeroports (METAR i TAF).

Les estacions disponibles són els punts grocs i vermells al mapa.

Posi el ratolí al punt desitjat per veure el nom de l'estació.

Feu clic per veure les observacions i els pronòstics meteorològics.

Per canviar el mapa: feu clic els botons verds amb una creu de color negre per apropar; al botó verd amb un guió per allunyar la imatge; o en les fletxes verdes per a mapes adjacents.


METAR-TAF: